Time;durP1;ratioP1;P1;durP2;ratioP2;P2;SDS_P1;SDS_P2;PMS_P1;PMS_P2;Temp;Humidity;BMP_temperature;BMP_pressure;BME280_temperature;BME280_humidity;BME280_pressure;Samples;Min_cycle;Max_cycle;Signal;HPM_P1;HPM_P2
2022/12/27 00:01:36;;;;;;;6.10;4.50;;;;;;;8.15;88.53;99463.55;210499;1295;140337;-70
2022/12/27 00:06:42;;;;;;;4.70;3.70;;;;;;;8.20;88.25;99459.23;210664;1277;139812;-66
2022/12/27 00:11:49;;;;;;;7.30;4.40;;;;;;;8.23;88.61;99462.83;208885;1298;140039;-69
2022/12/27 00:17:02;;;;;;;5.30;3.60;;;;;;;8.22;88.16;99471.39;210755;1287;140106;-68
2022/12/27 00:22:06;;;;;;;5.70;4.50;;;;;;;8.26;88.24;99475.03;207884;1278;140970;-68
2022/12/27 00:27:10;;;;;;;80.10;41.40;;;;;;;8.29;88.56;99488.51;207701;1298;150775;-68
2022/12/27 00:32:13;;;;;;;61.00;27.30;;;;;;;8.26;88.47;99492.92;207585;1279;139875;-65
2022/12/27 00:37:17;;;;;;;12.40;7.50;;;;;;;8.23;88.35;99493.19;208789;1300;141255;-65
2022/12/27 00:42:22;;;;;;;10.00;5.80;;;;;;;8.18;88.32;99510.24;207905;1286;139658;-66
2022/12/27 00:47:26;;;;;;;6.50;4.50;;;;;;;8.09;88.29;99520.30;207945;1285;139997;-67
2022/12/27 00:52:31;;;;;;;8.40;4.60;;;;;;;8.05;88.63;99513.70;207724;1278;140452;-66
2022/12/27 00:57:35;;;;;;;7.60;5.70;;;;;;;7.94;88.70;99519.08;207621;1294;139833;-66
2022/12/27 01:02:38;;;;;;;5.20;4.70;;;;;;;7.87;88.84;99531.05;208767;1286;139448;-65
2022/12/27 01:07:42;;;;;;;5.20;4.70;;;;;;;7.90;88.95;99523.70;208129;1294;151536;-67
2022/12/27 01:12:46;;;;;;;5.70;3.60;;;;;;;7.91;89.06;99526.43;207767;1285;151692;-66
2022/12/27 01:17:50;;;;;;;4.70;4.20;;;;;;;7.90;88.97;99530.81;207998;1291;140034;-64
2022/12/27 01:22:55;;;;;;;4.80;4.40;;;;;;;7.90;89.31;99530.77;209507;1292;139780;-65
2022/12/27 01:27:59;;;;;;;5.90;4.10;;;;;;;7.81;88.96;99527.42;208957;1295;139852;-68
2022/12/27 01:33:03;;;;;;;4.40;3.60;;;;;;;7.78;89.29;99532.61;209108;1282;139996;-65
2022/12/27 01:38:07;;;;;;;6.30;4.20;;;;;;;7.77;88.58;99529.55;208241;1292;141415;-64
2022/12/27 01:43:17;;;;;;;5.40;4.00;;;;;;;7.72;88.72;99531.15;207954;1292;140070;-65
2022/12/27 01:48:23;;;;;;;6.80;4.70;;;;;;;7.68;88.69;99536.95;210117;1285;140264;-67
2022/12/27 01:53:31;;;;;;;5.00;4.20;;;;;;;7.66;88.37;99539.30;207815;1294;140502;-67
2022/12/27 01:58:41;;;;;;;5.70;4.40;;;;;;;7.62;89.00;99545.20;207748;1278;140020;-67
2022/12/27 02:03:49;;;;;;;4.70;4.00;;;;;;;7.60;88.74;99553.10;209572;1292;139645;-65
2022/12/27 02:09:04;;;;;;;4.60;3.00;;;;;;;7.54;88.60;99557.77;210725;1285;139279;-67
2022/12/27 02:14:11;;;;;;;72.30;33.60;;;;;;;7.44;88.40;99557.73;208194;1289;139613;-65
2022/12/27 02:19:39;;;;;;;13.10;10.00;;;;;;;7.35;88.04;99566.20;208631;1285;236647;-65
2022/12/27 02:24:53;;;;;;;3.40;3.10;;;;;;;7.24;88.19;99575.87;207910;1285;140633;-66
2022/12/27 02:30:04;;;;;;;3.80;2.40;;;;;;;7.14;88.09;99589.06;208516;1278;139378;-65
2022/12/27 03:05:43;;;;;;;1.90;1.20;;;;;;;5.06;86.86;99714.00;207792;1324;683832;-67
2022/12/27 03:16:40;;;;;;;1.10;0.90;;;;;;;4.80;86.61;99703.57;208063;1306;491505;-67
2022/12/27 03:27:17;;;;;;;1.80;0.70;;;;;;;4.63;86.04;99716.09;208041;1303;139436;-67
2022/12/27 03:38:01;;;;;;;3.90;0.80;;;;;;;4.55;85.72;99757.85;207462;1299;222763;-67
2022/12/27 03:43:15;;;;;;;1.70;0.70;;;;;;;4.44;85.52;99773.70;207499;1305;138924;-67
2022/12/27 03:48:23;;;;;;;2.50;1.20;;;;;;;4.32;85.37;99793.92;207855;1310;138756;-66
2022/12/27 03:53:36;;;;;;;2.80;1.30;;;;;;;4.27;85.14;99805.51;207446;1307;139107;-67
2022/12/27 03:58:40;;;;;;;4.30;1.20;;;;;;;4.20;85.69;99812.92;205817;1298;138942;-67
2022/12/27 04:03:44;;;;;;;4.80;1.40;;;;;;;4.14;85.53;99815.67;205681;1298;139292;-66
2022/12/27 04:35:38;;;;;;;6.60;1.60;;;;;;;3.88;85.78;99871.98;207442;1289;139457;-66
2022/12/27 04:57:12;;;;;;;9.80;1.60;;;;;;;3.56;85.53;99891.52;209615;1292;140715;-65
2022/12/27 05:02:17;;;;;;;3.30;1.20;;;;;;;3.48;85.76;99894.98;208482;1298;138986;-65
2022/12/27 05:18:06;;;;;;;6.40;1.20;;;;;;;3.33;85.76;99911.31;209986;1297;140043;-66
2022/12/27 05:28:32;;;;;;;8.90;1.30;;;;;;;3.33;85.62;99913.96;208926;1295;139781;-65
2022/12/27 05:33:35;;;;;;;4.10;1.00;;;;;;;3.31;85.81;99923.33;208864;1298;138151;-67
2022/12/27 05:38:39;;;;;;;2.80;1.90;;;;;;;3.24;85.54;99932.23;207875;1281;138401;-66
2022/12/27 05:43:42;;;;;;;3.50;1.60;;;;;;;3.22;85.55;99934.30;208499;1292;138943;-66
2022/12/27 05:48:46;;;;;;;7.90;1.70;;;;;;;3.21;85.80;99941.82;208474;1291;138703;-67
2022/12/27 05:53:50;;;;;;;2.70;1.20;;;;;;;3.19;85.94;99947.59;207607;1297;139320;-66
2022/12/27 05:58:53;;;;;;;5.10;1.20;;;;;;;3.21;85.69;99959.56;207871;1289;139573;-67
2022/12/27 06:03:56;;;;;;;7.40;3.20;;;;;;;3.20;86.00;99971.20;208006;1298;141844;-66
2022/12/27 06:09:00;;;;;;;9.60;2.10;;;;;;;3.23;86.28;99968.11;207652;1298;139124;-66
2022/12/27 06:14:05;;;;;;;2.70;1.50;;;;;;;3.27;86.16;99968.79;207777;1285;140074;-67
2022/12/27 06:19:12;;;;;;;3.20;2.00;;;;;;;3.31;86.40;99978.49;207747;1284;140192;-67
2022/12/27 06:24:15;;;;;;;4.60;1.20;;;;;;;3.35;86.39;99988.97;207805;1284;139761;-68
2022/12/27 06:29:19;;;;;;;5.00;1.70;;;;;;;3.37;86.32;99998.86;208515;1295;139965;-67
2022/12/27 06:34:23;;;;;;;7.10;3.50;;;;;;;3.34;86.45;100014.85;208159;1295;139440;-67
2022/12/27 06:39:26;;;;;;;6.00;1.30;;;;;;;3.34;86.57;100036.17;208758;1287;139519;-68
2022/12/27 06:44:29;;;;;;;9.30;1.90;;;;;;;3.43;86.52;100040.66;207831;1290;139571;-67
2022/12/27 06:49:32;;;;;;;7.90;1.40;;;;;;;3.49;86.42;100048.73;208592;1300;139937;-67
2022/12/27 06:54:37;;;;;;;8.10;1.80;;;;;;;3.50;86.66;100054.77;208718;1291;139589;-68
2022/12/27 06:59:40;;;;;;;5.00;2.10;;;;;;;3.55;86.38;100066.96;207706;1294;141072;-68
2022/12/27 07:04:42;;;;;;;3.90;1.40;;;;;;;3.56;86.26;100069.89;210114;1289;141580;-69
2022/12/27 07:09:45;;;;;;;2.60;1.40;;;;;;;3.57;86.45;100085.92;210288;1298;140122;-66
2022/12/27 07:14:47;;;;;;;15.70;2.20;;;;;;;3.62;86.39;100100.45;210673;1301;140538;-66
2022/12/27 07:19:52;;;;;;;7.40;1.80;;;;;;;3.68;86.14;100100.06;209317;1287;139588;-66
2022/12/27 07:24:55;;;;;;;6.30;2.00;;;;;;;3.70;86.43;100105.08;209800;1295;139229;-67
2022/12/27 07:29:58;;;;;;;14.40;2.70;;;;;;;3.75;86.27;100115.65;210500;1295;139118;-68
2022/12/27 07:35:00;;;;;;;7.80;2.70;;;;;;;3.80;86.33;100119.79;207857;1291;140577;-67
2022/12/27 07:40:02;;;;;;;4.50;2.20;;;;;;;3.85;86.26;100123.27;207542;1301;141338;-66
2022/12/27 07:45:05;;;;;;;8.40;3.60;;;;;;;3.86;86.16;100130.48;207601;1288;151740;-65
2022/12/27 07:50:09;;;;;;;16.30;3.70;;;;;;;3.87;86.19;100140.88;208774;1292;139777;-66
2022/12/27 07:55:11;;;;;;;6.90;2.40;;;;;;;3.89;86.15;100141.55;208559;1293;141966;-65
2022/12/27 08:00:14;;;;;;;9.90;4.10;;;;;;;3.90;86.15;100147.54;208520;1291;139648;-69
2022/12/27 08:05:17;;;;;;;4.50;2.10;;;;;;;3.95;86.01;100156.34;208425;1285;139533;-67
2022/12/27 08:10:27;;;;;;;11.90;2.70;;;;;;;3.97;85.98;100161.19;208106;1284;140057;-66
2022/12/27 08:15:30;;;;;;;6.60;3.20;;;;;;;3.99;85.94;100168.98;207832;1287;139280;-64
2022/12/27 08:20:35;;;;;;;8.30;2.90;;;;;;;4.00;85.66;100176.06;208959;1284;141738;-66
2022/12/27 08:25:39;;;;;;;11.80;4.30;;;;;;;3.97;85.38;100183.34;209397;1293;139864;-66
2022/12/27 08:30:52;;;;;;;10.90;3.10;;;;;;;4.01;85.61;100191.26;208832;1299;217469;-65
2022/12/27 08:35:57;;;;;;;6.60;4.20;;;;;;;4.12;85.40;100193.16;209123;1298;141915;-66
2022/12/27 08:41:01;;;;;;;8.00;3.10;;;;;;;4.18;85.48;100192.23;210615;1293;139758;-67
2022/12/27 08:46:04;;;;;;;4.00;2.70;;;;;;;4.29;85.03;100203.92;208689;1284;139761;-65
2022/12/27 08:51:08;;;;;;;6.00;3.40;;;;;;;4.42;84.77;100209.73;207646;1295;140055;-66
2022/12/27 08:56:18;;;;;;;7.70;4.20;;;;;;;4.55;84.40;100205.56;208536;1295;140000;-66
2022/12/27 09:01:21;;;;;;;5.40;2.70;;;;;;;4.62;84.09;100224.52;207895;1291;230662;-66
2022/12/27 09:06:26;;;;;;;10.70;3.20;;;;;;;4.50;83.64;100235.88;208174;1300;139422;-66
2022/12/27 09:11:32;;;;;;;3.80;2.00;;;;;;;4.37;83.70;100255.27;209796;1295;139940;-70
2022/12/27 09:16:34;;;;;;;6.00;4.90;;;;;;;4.32;83.40;100262.27;208936;1290;143522;-68
2022/12/27 09:21:39;;;;;;;4.10;3.00;;;;;;;4.34;83.76;100268.21;207788;1294;142702;-68
2022/12/27 09:26:42;;;;;;;8.60;2.40;;;;;;;4.31;83.48;100269.30;208332;1291;139732;-66
2022/12/27 09:31:46;;;;;;;5.00;2.80;;;;;;;4.38;83.65;100277.21;208612;1296;140370;-66
2022/12/27 09:36:48;;;;;;;12.40;5.70;;;;;;;4.33;83.08;100285.58;207977;1286;140563;-66
2022/12/27 09:42:07;;;;;;;7.30;3.30;;;;;;;4.21;82.81;100283.59;210305;1301;140211;-66
2022/12/27 09:47:52;;;;;;;6.00;3.40;;;;;;;4.13;82.82;100284.96;207690;1292;235103;-67
2022/12/27 09:53:21;;;;;;;6.10;3.50;;;;;;;3.99;82.85;100288.02;208662;1292;139558;-66
2022/12/27 09:58:33;;;;;;;;;;;;;;;3.95;82.75;100287.48;208336;1288;138873;-66
2022/12/27 10:03:37;;;;;;;3.00;2.40;;;;;;;3.95;83.11;100281.84;208324;1291;128008;-66
2022/12/27 10:08:51;;;;;;;12.60;3.60;;;;;;;3.91;82.94;100284.09;207865;1285;139410;-67
2022/12/27 10:14:00;;;;;;;4.40;2.90;;;;;;;3.95;83.03;100288.77;208025;1292;139294;-66
2022/12/27 10:19:10;;;;;;;7.10;3.60;;;;;;;3.96;82.98;100281.20;208035;1284;138951;-66
2022/12/27 10:24:23;;;;;;;9.10;3.40;;;;;;;3.97;82.99;100291.48;208041;1285;140717;-67
2022/12/27 10:29:28;;;;;;;17.70;7.40;;;;;;;4.10;83.03;100288.39;207807;1286;140474;-66
2022/12/27 10:34:32;;;;;;;6.80;5.10;;;;;;;4.22;83.10;100296.95;209296;1285;141507;-66
2022/12/27 10:39:39;;;;;;;13.90;4.70;;;;;;;4.26;82.89;100294.26;207516;1284;143353;-66
2022/12/27 10:44:42;;;;;;;5.30;3.00;;;;;;;4.30;82.68;100289.59;208445;1294;141191;-66
2022/12/27 10:50:09;;;;;;;8.60;3.60;;;;;;;4.32;82.63;100277.60;208040;1287;139711;-66
2022/12/27 10:55:34;;;;;;;34.60;16.40;;;;;;;4.35;82.35;100272.89;208259;1284;139548;-65
2022/12/27 11:00:51;;;;;;;30.50;20.10;;;;;;;4.31;82.21;100275.84;209632;1295;139319;-68
2022/12/27 11:06:03;;;;;;;14.70;5.40;;;;;;;4.21;82.18;100281.40;210634;1295;139642;-66
2022/12/27 11:11:20;;;;;;;7.90;5.00;;;;;;;4.28;82.33;100290.13;209796;1293;139354;-65
2022/12/27 11:16:29;;;;;;;7.80;4.00;;;;;;;4.36;82.34;100285.46;210558;1295;140767;-67
2022/12/27 11:21:38;;;;;;;9.90;4.40;;;;;;;4.42;82.32;100285.92;208490;1300;139064;-67
2022/12/27 11:26:48;;;;;;;;;;;;;;;4.49;81.61;100288.56;209733;1300;139281;-67
2022/12/27 11:32:07;;;;;;;7.60;5.20;;;;;;;4.40;82.03;100291.00;208338;1296;126113;-67
2022/12/27 11:37:16;;;;;;;11.80;6.30;;;;;;;4.34;81.59;100280.02;208130;1284;220760;-67
2022/12/27 11:42:47;;;;;;;7.90;6.60;;;;;;;4.31;81.74;100288.44;208752;1295;140288;-65
2022/12/27 11:48:04;;;;;;;5.00;4.50;;;;;;;4.30;81.85;100282.40;207814;1278;139712;-66
2022/12/27 11:53:27;;;;;;;6.50;4.60;;;;;;;4.34;81.75;100280.59;207709;1293;139086;-66
2022/12/27 11:58:48;;;;;;;8.00;5.60;;;;;;;4.26;81.68;100291.34;207946;1294;139815;-66
2022/12/27 12:04:03;;;;;;;6.90;4.10;;;;;;;4.21;81.78;100297.92;207654;1295;244183;-67
2022/12/27 12:09:35;;;;;;;12.30;5.80;;;;;;;4.23;81.72;100298.43;207775;1294;140011;-66
2022/12/27 12:14:46;;;;;;;9.00;3.00;;;;;;;4.26;81.96;100295.08;207674;1284;139874;-66
2022/12/27 12:20:17;;;;;;;7.10;4.80;;;;;;;4.27;81.79;100288.34;209167;1294;138618;-66
2022/12/27 12:25:42;;;;;;;10.30;4.50;;;;;;;4.35;82.07;100291.86;208681;1294;139279;-67
2022/12/27 12:31:15;;;;;;;9.20;3.90;;;;;;;4.45;81.84;100298.63;207682;1289;139747;-66
2022/12/27 12:36:43;;;;;;;9.20;3.00;;;;;;;4.46;81.49;100294.14;208230;1282;139593;-66
2022/12/27 12:42:00;;;;;;;36.20;15.70;;;;;;;4.51;81.49;100301.48;208159;1294;141535;-66
2022/12/27 12:47:42;;;;;;;24.30;13.40;;;;;;;4.52;81.55;100296.25;209395;1286;140005;-66
2022/12/27 12:53:04;;;;;;;8.80;3.50;;;;;;;4.56;81.22;100289.83;208414;1295;140598;-65
2022/12/27 12:58:38;;;;;;;5.00;2.80;;;;;;;4.65;81.13;100294.17;207922;1291;139559;-66
2022/12/27 13:03:47;;;;;;;7.40;4.20;;;;;;;4.62;81.14;100292.85;209227;1295;139781;-67
2022/12/27 13:09:09;;;;;;;5.00;2.80;;;;;;;4.61;81.31;100294.78;210406;1294;139532;-67
2022/12/27 13:14:31;;;;;;;8.20;4.80;;;;;;;4.59;81.20;100294.27;209808;1295;140088;-68
2022/12/27 13:20:06;;;;;;;7.30;4.10;;;;;;;4.59;80.93;100297.48;210097;1293;141971;-67
2022/12/27 13:25:29;;;;;;;7.70;4.50;;;;;;;4.54;80.87;100298.81;208378;1294;244131;-66
2022/12/27 13:30:41;;;;;;;9.80;4.00;;;;;;;4.51;80.74;100295.30;209465;1295;139678;-66
2022/12/27 13:36:10;;;;;;;6.60;4.70;;;;;;;4.50;80.67;100300.40;207831;1294;139300;-68
2022/12/27 13:41:31;;;;;;;;;;;;;;;4.42;80.72;100304.67;207443;1295;140712;-65
2022/12/27 13:46:53;;;;;;;11.10;6.60;;;;;;;4.40;80.68;100315.96;208620;1280;125744;-66
2022/12/27 13:52:07;;;;;;;4.80;3.20;;;;;;;4.36;80.54;100320.23;207562;1284;141479;-67
2022/12/27 13:57:23;;;;;;;5.30;3.80;;;;;;;4.30;80.46;100327.19;207525;1287;138942;-64
2022/12/27 14:03:01;;;;;;;144.20;62.90;;;;;;;4.23;80.33;100332.21;207818;1294;140995;-67
2022/12/27 14:08:16;;;;;;;30.50;18.00;;;;;;;4.16;80.52;100331.80;208026;1289;140382;-67
2022/12/27 14:13:35;;;;;;;20.30;10.70;;;;;;;4.16;80.48;100339.69;208549;1292;142729;-67
2022/12/27 14:19:13;;;;;;;9.80;5.60;;;;;;;4.17;80.56;100340.11;208163;1286;140396;-66
2022/12/27 14:24:50;;;;;;;8.40;6.40;;;;;;;4.14;80.44;100347.72;207551;1287;221930;-64
2022/12/27 14:29:52;;;;;;;4.90;4.50;;;;;;;4.11;80.44;100353.19;209052;1293;140456;-64
2022/12/27 14:35:12;;;;;;;10.10;4.40;;;;;;;4.10;80.60;100358.53;207867;1287;138897;-67
2022/12/27 14:40:41;;;;;;;4.60;4.20;;;;;;;4.12;80.45;100363.20;208789;1288;140195;-66
2022/12/27 14:46:12;;;;;;;10.30;3.80;;;;;;;4.10;80.63;100374.70;207610;1279;139269;-66
2022/12/27 14:51:38;;;;;;;12.00;4.80;;;;;;;4.09;80.23;100386.77;209468;1286;140047;-62
2022/12/27 14:57:26;;;;;;;5.70;3.80;;;;;;;4.10;80.17;100385.05;207863;1286;154802;-67
2022/12/27 15:03:14;;;;;;;4.70;3.70;;;;;;;4.06;79.95;100396.59;210422;1294;139364;-68
2022/12/27 15:08:30;;;;;;;4.10;3.40;;;;;;;4.06;79.94;100404.16;210409;1294;245233;-66
2022/12/27 15:13:40;;;;;;;4.90;2.80;;;;;;;4.04;79.83;100404.98;209534;1295;139856;-66
2022/12/27 15:18:53;;;;;;;2.40;2.20;;;;;;;4.03;79.88;100410.29;210380;1295;303368;-65
2022/12/27 15:24:20;;;;;;;6.70;4.20;;;;;;;4.04;79.69;100410.55;208755;1287;140836;-66
2022/12/27 15:29:56;;;;;;;8.70;4.20;;;;;;;4.01;79.72;100409.35;207634;1287;139860;-66
2022/12/27 15:35:34;;;;;;;4.90;3.10;;;;;;;4.00;79.87;100414.13;208597;1284;139973;-66
2022/12/27 15:40:43;;;;;;;6.00;3.50;;;;;;;4.00;80.13;100415.77;209050;1295;139061;-67
2022/12/27 15:46:27;;;;;;;4.30;1.90;;;;;;;4.03;80.06;100420.91;208249;1284;140275;-67
2022/12/27 15:51:57;;;;;;;7.30;4.10;;;;;;;4.04;79.68;100415.83;208216;1288;247862;-68
2022/12/27 15:57:28;;;;;;;5.90;3.50;;;;;;;4.01;79.65;100415.48;208246;1286;139457;-64
2022/12/27 16:02:33;;;;;;;6.80;3.20;;;;;;;3.95;79.55;100415.50;208518;1293;139036;-68
2022/12/27 16:07:46;;;;;;;6.10;3.20;;;;;;;3.95;79.78;100410.80;207635;1292;140100;-66
2022/12/27 16:12:50;;;;;;;4.20;3.10;;;;;;;3.99;79.59;100420.34;207813;1286;139699;-65
2022/12/27 16:17:54;;;;;;;7.80;3.00;;;;;;;4.01;79.68;100422.17;207968;1287;139078;-66
2022/12/27 16:23:04;;;;;;;12.10;3.60;;;;;;;4.00;79.60;100424.09;208452;1296;139518;-66
2022/12/27 16:28:17;;;;;;;12.00;3.60;;;;;;;4.00;79.48;100430.73;207709;1293;140321;-66
2022/12/27 16:33:39;;;;;;;10.00;4.30;;;;;;;4.01;79.51;100438.13;208541;1280;139467;-67
2022/12/27 16:39:30;;;;;;;12.70;4.40;;;;;;;3.98;79.32;100435.20;208778;1287;140483;-66
2022/12/27 16:44:51;;;;;;;3.70;2.70;;;;;;;3.95;79.29;100438.76;207671;1283;225711;-67
2022/12/27 16:50:16;;;;;;;7.10;3.60;;;;;;;3.92;79.34;100440.85;208660;1286;141245;-68
2022/12/27 16:55:44;;;;;;;7.30;3.60;;;;;;;3.90;79.25;100447.36;207807;1287;138813;-67
2022/12/27 17:00:49;;;;;;;7.00;3.30;;;;;;;3.94;79.17;100447.64;210607;1289;139883;-65
2022/12/27 17:05:52;;;;;;;6.30;4.20;;;;;;;3.94;79.11;100454.29;210429;1286;139802;-65
2022/12/27 17:11:26;;;;;;;10.50;3.70;;;;;;;3.95;79.01;100456.59;208907;1287;234941;-65
2022/12/27 17:16:46;;;;;;;6.00;3.80;;;;;;;3.96;78.65;100455.50;207789;1285;140203;-66
2022/12/27 17:21:56;;;;;;;6.90;4.10;;;;;;;3.92;78.82;100460.30;207569;1288;139314;-68
2022/12/27 17:27:04;;;;;;;12.30;3.70;;;;;;;3.85;78.99;100466.37;207501;1294;140716;-68
2022/12/27 17:32:22;;;;;;;8.10;4.80;;;;;;;3.85;79.01;100473.30;207708;1291;139840;-66
2022/12/27 17:37:45;;;;;;;10.10;4.20;;;;;;;3.79;79.13;100473.75;207822;1293;139861;-66
2022/12/27 17:48:32;;;;;;;7.50;5.40;;;;;;;3.77;79.39;100481.56;207533;1281;140042;-64
2022/12/27 17:59:14;;;;;;;8.30;5.10;;;;;;;3.75;79.51;100493.02;207539;1287;138737;-66
2022/12/27 18:04:24;;;;;;;11.10;5.80;;;;;;;3.77;79.32;100492.77;207966;1287;139554;-64
2022/12/27 18:09:46;;;;;;;10.20;4.70;;;;;;;3.77;79.37;100486.84;207641;1292;140713;-65
2022/12/27 18:15:14;;;;;;;11.00;5.20;;;;;;;3.71;79.54;100495.89;207844;1288;141221;-65
2022/12/27 18:20:25;;;;;;;7.30;4.70;;;;;;;3.68;79.65;100498.74;208052;1288;139435;-63
2022/12/27 18:25:36;;;;;;;10.10;5.00;;;;;;;3.67;79.62;100494.73;208956;1287;139948;-65
2022/12/27 18:30:46;;;;;;;9.20;5.30;;;;;;;3.72;79.58;100497.01;209041;1282;140249;-66
2022/12/27 18:35:50;;;;;;;5.90;4.20;;;;;;;3.73;79.66;100510.95;207493;1289;140037;-67
2022/12/27 18:41:17;;;;;;;8.30;6.70;;;;;;;3.71;79.53;100519.10;209822;1288;139602;-69
2022/12/27 18:46:32;;;;;;;12.30;5.90;;;;;;;3.69;79.72;100522.00;208957;1293;138571;-65
2022/12/27 18:51:38;;;;;;;15.00;7.10;;;;;;;3.70;79.69;100522.50;207856;1290;140771;-64
2022/12/27 18:56:42;;;;;;;8.00;4.90;;;;;;;3.75;79.76;100527.45;208816;1287;139963;-66
2022/12/27 19:01:46;;;;;;;12.80;6.20;;;;;;;3.73;79.70;100528.42;209502;1286;139882;-68
2022/12/27 19:06:53;;;;;;;11.80;5.80;;;;;;;3.70;79.68;100532.45;210182;1297;139694;-69
2022/12/27 19:12:06;;;;;;;16.10;6.10;;;;;;;3.73;79.70;100537.91;210065;1294;139964;-67
2022/12/27 19:17:22;;;;;;;13.00;6.50;;;;;;;3.77;79.85;100544.13;209066;1295;219626;-65
2022/12/27 19:22:47;;;;;;;14.60;7.10;;;;;;;3.79;79.73;100544.79;208392;1287;139109;-65
2022/12/27 19:28:08;;;;;;;9.80;6.10;;;;;;;3.76;79.93;100549.58;208564;1287;140280;-67
2022/12/27 19:33:18;;;;;;;8.40;5.40;;;;;;;3.71;79.70;100554.40;208062;1278;139706;-63
2022/12/27 19:38:24;;;;;;;10.20;4.60;;;;;;;3.67;79.61;100556.65;209868;1294;139599;-66
2022/12/27 19:43:33;;;;;;;8.20;5.80;;;;;;;3.63;79.84;100562.23;208740;1295;140112;-66
2022/12/27 19:48:36;;;;;;;7.80;5.20;;;;;;;3.63;79.77;100571.91;208510;1294;139028;-64
2022/12/27 19:53:43;;;;;;;11.80;7.40;;;;;;;3.64;79.76;100575.30;208830;1294;139638;-65
2022/12/27 19:58:46;;;;;;;7.90;6.40;;;;;;;3.65;79.78;100583.81;207472;1294;140859;-64
2022/12/27 20:03:52;;;;;;;9.90;4.80;;;;;;;3.62;80.01;100584.80;207972;1295;139321;-64
2022/12/27 20:08:55;;;;;;;8.90;5.00;;;;;;;3.58;80.02;100591.95;209000;1294;138810;-64
2022/12/27 20:13:59;;;;;;;9.40;5.50;;;;;;;3.59;79.92;100593.80;207489;1288;139241;-65
2022/12/27 20:19:01;;;;;;;9.70;6.60;;;;;;;3.57;80.05;100594.98;208731;1284;140171;-62
2022/12/27 20:24:04;;;;;;;10.60;7.20;;;;;;;3.52;80.03;100589.10;209463;1290;139682;-63
2022/12/27 20:29:07;;;;;;;10.60;5.60;;;;;;;3.54;80.12;100582.94;208781;1293;140935;-67
2022/12/27 20:34:10;;;;;;;12.30;5.60;;;;;;;3.54;80.06;100580.46;208845;1291;143010;-64
2022/12/27 20:39:13;;;;;;;9.10;6.00;;;;;;;3.50;80.14;100575.39;208979;1285;140975;-63
2022/12/27 20:44:18;;;;;;;12.70;6.60;;;;;;;3.46;80.02;100570.63;209124;1287;139728;-65
2022/12/27 20:49:33;;;;;;;11.60;6.10;;;;;;;3.39;79.59;100568.96;209604;1288;247648;-66
2022/12/27 20:54:38;;;;;;;9.60;6.00;;;;;;;3.28;79.76;100573.07;210326;1294;140590;-66
2022/12/27 20:59:45;;;;;;;33.90;19.20;;;;;;;3.17;79.88;100569.39;210401;1294;140730;-65
2022/12/27 21:04:59;;;;;;;13.10;9.30;;;;;;;3.12;79.89;100574.53;210584;1294;140504;-67
2022/12/27 21:10:19;;;;;;;16.60;7.90;;;;;;;3.08;79.89;100572.66;209410;1295;140276;-67
2022/12/27 21:15:28;;;;;;;11.60;6.70;;;;;;;3.00;79.77;100575.97;209032;1287;159497;-63
2022/12/27 21:20:43;;;;;;;12.10;6.40;;;;;;;2.91;79.95;100575.52;207894;1293;139581;-68
2022/12/27 21:25:51;;;;;;;14.20;8.70;;;;;;;2.91;80.04;100585.56;208573;1279;219495;-66
2022/12/27 21:30:58;;;;;;;13.70;7.40;;;;;;;2.90;80.37;100588.79;208501;1288;140425;-66
2022/12/27 21:36:13;;;;;;;15.50;6.30;;;;;;;2.93;80.56;100595.02;209403;1288;248145;-66
2022/12/27 21:41:26;;;;;;;8.90;6.20;;;;;;;2.94;80.54;100596.27;208894;1293;139834;-65
2022/12/27 21:46:36;;;;;;;9.50;7.10;;;;;;;3.01;80.44;100597.96;208549;1270;139831;-65
2022/12/27 21:51:46;;;;;;;10.40;6.80;;;;;;;2.99;80.51;100595.98;208367;1287;140396;-65
2022/12/27 21:56:51;;;;;;;11.90;6.20;;;;;;;2.93;80.37;100593.60;207872;1282;139264;-65
2022/12/27 22:01:56;;;;;;;14.50;6.90;;;;;;;2.83;80.37;100590.63;207856;1288;140983;-66
2022/12/27 22:07:01;;;;;;;13.80;7.10;;;;;;;2.82;80.42;100588.61;208092;1293;141107;-66
2022/12/27 22:12:07;;;;;;;15.90;6.60;;;;;;;2.78;80.68;100583.85;207773;1291;140179;-66
2022/12/27 22:17:15;;;;;;;13.20;7.80;;;;;;;2.72;80.61;100597.67;209047;1293;140221;-67
2022/12/27 22:22:25;;;;;;;10.50;5.30;;;;;;;2.61;80.79;100603.58;208339;1287;217975;-66
2022/12/27 22:27:29;;;;;;;18.00;6.30;;;;;;;2.49;80.66;100603.98;208688;1288;139951;-64
2022/12/27 22:32:35;;;;;;;14.80;7.20;;;;;;;2.39;80.46;100606.56;208554;1287;223218;-67
2022/12/27 22:37:41;;;;;;;24.10;9.90;;;;;;;2.34;80.68;100610.03;209198;1285;141132;-66
2022/12/27 22:42:47;;;;;;;10.90;6.20;;;;;;;2.30;80.76;100617.84;209591;1288;141059;-65
2022/12/27 22:47:54;;;;;;;13.20;7.50;;;;;;;2.24;80.91;100614.92;210261;1286;140031;-66
2022/12/27 22:53:00;;;;;;;22.60;7.50;;;;;;;2.20;80.91;100618.35;210656;1297;140009;-63
2022/12/27 22:58:08;;;;;;;11.70;7.70;;;;;;;2.23;80.93;100611.92;210526;1293;140070;-66
2022/12/27 23:03:13;;;;;;;9.90;5.00;;;;;;;2.22;80.74;100609.02;210387;1295;139768;-64
2022/12/27 23:08:20;;;;;;;7.90;5.80;;;;;;;2.13;80.61;100614.03;210466;1288;140384;-64
2022/12/27 23:13:29;;;;;;;9.40;6.10;;;;;;;2.07;80.64;100617.44;208694;1294;138568;-66
2022/12/27 23:18:38;;;;;;;16.40;7.00;;;;;;;2.05;80.70;100618.17;209666;1295;140102;-64
2022/12/27 23:23:49;;;;;;;11.00;6.40;;;;;;;1.96;80.88;100619.98;208644;1294;139516;-65
2022/12/27 23:28:59;;;;;;;6.60;4.60;;;;;;;1.92;81.26;100620.45;208197;1294;140372;-60
2022/12/27 23:34:05;;;;;;;14.30;5.10;;;;;;;1.90;81.48;100615.11;208717;1294;139872;-62
2022/12/27 23:39:09;;;;;;;9.60;5.70;;;;;;;1.90;81.47;100618.98;209015;1294;139451;-62
2022/12/27 23:44:12;;;;;;;5.90;4.40;;;;;;;1.91;81.47;100618.00;209097;1284;139303;-62
2022/12/27 23:49:16;;;;;;;8.30;4.40;;;;;;;1.90;81.37;100613.53;208992;1294;140891;-62
2022/12/27 23:54:21;;;;;;;9.40;4.50;;;;;;;1.88;81.61;100613.29;207900;1286;139803;-62
2022/12/27 23:59:25;;;;;;;10.30;4.90;;;;;;;1.79;81.39;100608.41;209039;1294;152344;-62
